sensor_id;sensor_type;location;lat;lon;timestamp;P1;durP1;ratioP1;P2;durP2;ratioP2
15929;SDS011;8064;51.142;4.780;2023-05-10T00:02:06;51.60;;;48.37;;
15929;SDS011;8064;51.142;4.780;2023-05-10T00:04:32;48.97;;;45.93;;
15929;SDS011;8064;51.142;4.780;2023-05-10T00:06:58;48.47;;;45.33;;
15929;SDS011;8064;51.142;4.780;2023-05-10T00:09:24;49.47;;;46.50;;
15929;SDS011;8064;51.142;4.780;2023-05-10T00:11:50;49.57;;;46.63;;
15929;SDS011;8064;51.142;4.780;2023-05-10T00:14:16;44.63;;;41.83;;
15929;SDS011;8064;51.142;4.780;2023-05-10T00:16:42;47.77;;;44.87;;
15929;SDS011;8064;51.142;4.780;2023-05-10T00:19:08;48.73;;;45.73;;
15929;SDS011;8064;51.142;4.780;2023-05-10T00:21:34;47.13;;;44.03;;
15929;SDS011;8064;51.142;4.780;2023-05-10T00:23:59;48.47;;;45.37;;
15929;SDS011;8064;51.142;4.780;2023-05-10T00:26:25;47.97;;;44.97;;
15929;SDS011;8064;51.142;4.780;2023-05-10T00:28:51;48.90;;;45.80;;
15929;SDS011;8064;51.142;4.780;2023-05-10T00:31:17;47.53;;;44.33;;
15929;SDS011;8064;51.142;4.780;2023-05-10T00:33:42;49.97;;;46.53;;
15929;SDS011;8064;51.142;4.780;2023-05-10T00:36:08;49.50;;;46.50;;
15929;SDS011;8064;51.142;4.780;2023-05-10T00:38:34;48.07;;;44.80;;
15929;SDS011;8064;51.142;4.780;2023-05-10T00:41:00;47.00;;;43.83;;
15929;SDS011;8064;51.142;4.780;2023-05-10T00:43:26;49.40;;;46.20;;
15929;SDS011;8064;51.142;4.780;2023-05-10T00:45:52;49.60;;;46.37;;
15929;SDS011;8064;51.142;4.780;2023-05-10T00:48:18;49.87;;;46.90;;
15929;SDS011;8064;51.142;4.780;2023-05-10T00:50:44;50.07;;;46.63;;
15929;SDS011;8064;51.142;4.780;2023-05-10T00:53:10;49.87;;;46.60;;
15929;SDS011;8064;51.142;4.780;2023-05-10T00:55:36;48.93;;;45.73;;
15929;SDS011;8064;51.142;4.780;2023-05-10T00:58:02;51.57;;;48.27;;
15929;SDS011;8064;51.142;4.780;2023-05-10T01:00:29;49.37;;;46.20;;
15929;SDS011;8064;51.142;4.780;2023-05-10T01:02:56;49.30;;;45.97;;
15929;SDS011;8064;51.142;4.780;2023-05-10T01:05:23;52.53;;;48.90;;
15929;SDS011;8064;51.142;4.780;2023-05-10T01:07:49;50.80;;;47.23;;
15929;SDS011;8064;51.142;4.780;2023-05-10T01:10:14;49.67;;;46.47;;
15929;SDS011;8064;51.142;4.780;2023-05-10T01:12:41;50.53;;;47.07;;
15929;SDS011;8064;51.142;4.780;2023-05-10T01:15:09;50.80;;;47.30;;
15929;SDS011;8064;51.142;4.780;2023-05-10T01:17:36;52.57;;;48.63;;
15929;SDS011;8064;51.142;4.780;2023-05-10T01:20:04;51.83;;;48.50;;
15929;SDS011;8064;51.142;4.780;2023-05-10T01:28:14;52.90;;;49.03;;
15929;SDS011;8064;51.142;4.780;2023-05-10T01:34:07;52.77;;;48.90;;
15929;SDS011;8064;51.142;4.780;2023-05-10T01:36:31;52.73;;;48.83;;
15929;SDS011;8064;51.142;4.780;2023-05-10T01:41:54;54.13;;;50.07;;
15929;SDS011;8064;51.142;4.780;2023-05-10T01:47:07;51.80;;;48.03;;
15929;SDS011;8064;51.142;4.780;2023-05-10T01:52:25;55.60;;;51.50;;
15929;SDS011;8064;51.142;4.780;2023-05-10T01:54:55;53.63;;;49.73;;
15929;SDS011;8064;51.142;4.780;2023-05-10T01:57:27;53.23;;;49.43;;
15929;SDS011;8064;51.142;4.780;2023-05-10T01:59:58;51.13;;;47.50;;
15929;SDS011;8064;51.142;4.780;2023-05-10T02:02:26;53.57;;;49.67;;
15929;SDS011;8064;51.142;4.780;2023-05-10T02:04:54;52.07;;;48.13;;
15929;SDS011;8064;51.142;4.780;2023-05-10T02:07:20;52.43;;;48.60;;
15929;SDS011;8064;51.142;4.780;2023-05-10T02:09:48;51.63;;;47.87;;
15929;SDS011;8064;51.142;4.780;2023-05-10T02:12:15;52.27;;;48.63;;
15929;SDS011;8064;51.142;4.780;2023-05-10T02:14:42;52.77;;;49.13;;
15929;SDS011;8064;51.142;4.780;2023-05-10T02:17:09;53.37;;;49.73;;
15929;SDS011;8064;51.142;4.780;2023-05-10T02:19:39;54.03;;;50.47;;
15929;SDS011;8064;51.142;4.780;2023-05-10T02:22:06;53.07;;;49.40;;
15929;SDS011;8064;51.142;4.780;2023-05-10T02:24:34;53.47;;;49.97;;
15929;SDS011;8064;51.142;4.780;2023-05-10T02:27:02;53.57;;;49.77;;
15929;SDS011;8064;51.142;4.780;2023-05-10T02:29:29;53.20;;;49.33;;
15929;SDS011;8064;51.142;4.780;2023-05-10T02:31:57;53.40;;;49.80;;
15929;SDS011;8064;51.142;4.780;2023-05-10T02:34:25;50.60;;;47.10;;
15929;SDS011;8064;51.142;4.780;2023-05-10T02:36:53;50.63;;;47.33;;
15929;SDS011;8064;51.142;4.780;2023-05-10T02:39:20;50.30;;;46.70;;
15929;SDS011;8064;51.142;4.780;2023-05-10T02:41:48;53.93;;;50.30;;
15929;SDS011;8064;51.142;4.780;2023-05-10T02:44:16;52.50;;;48.67;;
15929;SDS011;8064;51.142;4.780;2023-05-10T02:46:44;55.33;;;51.63;;
15929;SDS011;8064;51.142;4.780;2023-05-10T02:49:10;50.20;;;47.03;;
15929;SDS011;8064;51.142;4.780;2023-05-10T02:51:37;53.57;;;50.07;;
15929;SDS011;8064;51.142;4.780;2023-05-10T02:56:56;55.10;;;51.40;;
15929;SDS011;8064;51.142;4.780;2023-05-10T02:59:25;53.93;;;50.30;;
15929;SDS011;8064;51.142;4.780;2023-05-10T03:01:51;51.97;;;48.27;;
15929;SDS011;8064;51.142;4.780;2023-05-10T03:04:17;53.87;;;50.17;;
15929;SDS011;8064;51.142;4.780;2023-05-10T03:06:43;53.63;;;50.13;;
15929;SDS011;8064;51.142;4.780;2023-05-10T03:09:09;51.87;;;48.27;;
15929;SDS011;8064;51.142;4.780;2023-05-10T03:14:07;55.43;;;51.73;;
15929;SDS011;8064;51.142;4.780;2023-05-10T03:16:45;54.03;;;50.33;;
15929;SDS011;8064;51.142;4.780;2023-05-10T03:19:16;54.20;;;50.60;;
15929;SDS011;8064;51.142;4.780;2023-05-10T03:21:50;55.37;;;51.43;;
15929;SDS011;8064;51.142;4.780;2023-05-10T03:24:20;53.40;;;49.90;;
15929;SDS011;8064;51.142;4.780;2023-05-10T03:26:48;55.67;;;51.77;;
15929;SDS011;8064;51.142;4.780;2023-05-10T03:29:16;59.00;;;54.90;;
15929;SDS011;8064;51.142;4.780;2023-05-10T03:31:43;55.43;;;51.57;;
15929;SDS011;8064;51.142;4.780;2023-05-10T03:34:08;56.33;;;52.63;;
15929;SDS011;8064;51.142;4.780;2023-05-10T03:36:34;58.40;;;54.33;;
15929;SDS011;8064;51.142;4.780;2023-05-10T03:39:01;54.43;;;50.60;;
15929;SDS011;8064;51.142;4.780;2023-05-10T03:41:27;54.97;;;51.17;;
15929;SDS011;8064;51.142;4.780;2023-05-10T03:43:53;58.30;;;54.10;;
15929;SDS011;8064;51.142;4.780;2023-05-10T03:46:19;56.53;;;52.47;;
15929;SDS011;8064;51.142;4.780;2023-05-10T03:48:44;63.50;;;58.47;;
15929;SDS011;8064;51.142;4.780;2023-05-10T03:51:10;63.00;;;58.07;;
15929;SDS011;8064;51.142;4.780;2023-05-10T03:53:36;62.93;;;57.90;;
15929;SDS011;8064;51.142;4.780;2023-05-10T03:56:02;67.20;;;61.47;;
15929;SDS011;8064;51.142;4.780;2023-05-10T03:58:27;66.50;;;60.87;;
15929;SDS011;8064;51.142;4.780;2023-05-10T04:00:53;68.97;;;63.13;;
15929;SDS011;8064;51.142;4.780;2023-05-10T04:03:20;70.43;;;64.10;;
15929;SDS011;8064;51.142;4.780;2023-05-10T04:05:46;73.10;;;66.37;;
15929;SDS011;8064;51.142;4.780;2023-05-10T04:08:11;74.47;;;67.37;;
15929;SDS011;8064;51.142;4.780;2023-05-10T04:10:37;75.87;;;68.73;;
15929;SDS011;8064;51.142;4.780;2023-05-10T04:13:03;78.97;;;71.37;;
15929;SDS011;8064;51.142;4.780;2023-05-10T04:15:29;81.37;;;73.57;;
15929;SDS011;8064;51.142;4.780;2023-05-10T04:17:54;74.33;;;67.47;;
15929;SDS011;8064;51.142;4.780;2023-05-10T04:20:20;73.73;;;66.80;;
15929;SDS011;8064;51.142;4.780;2023-05-10T04:22:46;75.27;;;68.07;;
15929;SDS011;8064;51.142;4.780;2023-05-10T04:25:11;68.60;;;62.27;;
15929;SDS011;8064;51.142;4.780;2023-05-10T04:27:37;70.07;;;63.53;;
15929;SDS011;8064;51.142;4.780;2023-05-10T04:30:03;73.00;;;66.63;;
15929;SDS011;8064;51.142;4.780;2023-05-10T04:32:29;70.23;;;63.73;;
15929;SDS011;8064;51.142;4.780;2023-05-10T04:34:56;73.43;;;66.63;;
15929;SDS011;8064;51.142;4.780;2023-05-10T04:37:22;72.73;;;65.87;;
15929;SDS011;8064;51.142;4.780;2023-05-10T04:39:48;73.37;;;66.57;;
15929;SDS011;8064;51.142;4.780;2023-05-10T04:42:13;71.77;;;64.87;;
15929;SDS011;8064;51.142;4.780;2023-05-10T04:44:40;70.27;;;63.80;;
15929;SDS011;8064;51.142;4.780;2023-05-10T04:47:05;69.10;;;62.60;;
15929;SDS011;8064;51.142;4.780;2023-05-10T04:49:31;68.57;;;62.63;;
15929;SDS011;8064;51.142;4.780;2023-05-10T04:51:57;68.50;;;62.37;;
15929;SDS011;8064;51.142;4.780;2023-05-10T04:54:23;70.07;;;63.30;;
15929;SDS011;8064;51.142;4.780;2023-05-10T04:56:49;67.93;;;62.00;;
15929;SDS011;8064;51.142;4.780;2023-05-10T04:59:15;67.57;;;61.33;;
15929;SDS011;8064;51.142;4.780;2023-05-10T05:01:40;63.30;;;57.73;;
15929;SDS011;8064;51.142;4.780;2023-05-10T05:04:06;61.80;;;56.43;;
15929;SDS011;8064;51.142;4.780;2023-05-10T05:06:32;65.00;;;59.43;;
15929;SDS011;8064;51.142;4.780;2023-05-10T05:08:58;65.60;;;59.90;;
15929;SDS011;8064;51.142;4.780;2023-05-10T05:11:23;61.07;;;55.63;;
15929;SDS011;8064;51.142;4.780;2023-05-10T05:13:50;61.23;;;55.87;;
15929;SDS011;8064;51.142;4.780;2023-05-10T05:16:16;61.37;;;55.87;;
15929;SDS011;8064;51.142;4.780;2023-05-10T05:18:42;61.40;;;55.77;;
15929;SDS011;8064;51.142;4.780;2023-05-10T05:23:52;62.63;;;56.93;;
15929;SDS011;8064;51.142;4.780;2023-05-10T05:26:18;66.53;;;60.43;;
15929;SDS011;8064;51.142;4.780;2023-05-10T05:28:44;66.03;;;60.10;;
15929;SDS011;8064;51.142;4.780;2023-05-10T05:31:09;65.00;;;59.00;;
15929;SDS011;8064;51.142;4.780;2023-05-10T05:33:35;64.50;;;58.57;;
15929;SDS011;8064;51.142;4.780;2023-05-10T05:36:02;67.70;;;61.80;;
15929;SDS011;8064;51.142;4.780;2023-05-10T05:38:29;67.97;;;61.87;;
15929;SDS011;8064;51.142;4.780;2023-05-10T05:40:55;67.40;;;61.63;;
15929;SDS011;8064;51.142;4.780;2023-05-10T05:43:21;64.30;;;58.43;;
15929;SDS011;8064;51.142;4.780;2023-05-10T05:45:47;65.27;;;59.53;;
15929;SDS011;8064;51.142;4.780;2023-05-10T05:48:12;70.57;;;64.27;;
15929;SDS011;8064;51.142;4.780;2023-05-10T05:50:38;68.40;;;62.47;;
15929;SDS011;8064;51.142;4.780;2023-05-10T05:53:04;70.07;;;63.93;;
15929;SDS011;8064;51.142;4.780;2023-05-10T05:55:30;67.33;;;61.53;;
15929;SDS011;8064;51.142;4.780;2023-05-10T05:57:56;69.33;;;63.63;;
15929;SDS011;8064;51.142;4.780;2023-05-10T06:00:23;68.40;;;62.47;;
15929;SDS011;8064;51.142;4.780;2023-05-10T06:02:49;68.93;;;62.90;;
15929;SDS011;8064;51.142;4.780;2023-05-10T06:05:14;66.43;;;60.73;;
15929;SDS011;8064;51.142;4.780;2023-05-10T06:07:40;69.23;;;63.43;;
15929;SDS011;8064;51.142;4.780;2023-05-10T06:10:08;69.47;;;63.47;;
15929;SDS011;8064;51.142;4.780;2023-05-10T06:12:34;67.50;;;61.40;;
15929;SDS011;8064;51.142;4.780;2023-05-10T06:15:00;64.30;;;58.77;;
15929;SDS011;8064;51.142;4.780;2023-05-10T06:17:26;69.97;;;64.10;;
15929;SDS011;8064;51.142;4.780;2023-05-10T06:19:52;66.40;;;60.57;;
15929;SDS011;8064;51.142;4.780;2023-05-10T06:22:18;70.43;;;64.57;;
15929;SDS011;8064;51.142;4.780;2023-05-10T06:24:44;68.83;;;63.37;;
15929;SDS011;8064;51.142;4.780;2023-05-10T06:27:09;70.47;;;64.87;;
15929;SDS011;8064;51.142;4.780;2023-05-10T06:29:35;65.13;;;59.97;;
15929;SDS011;8064;51.142;4.780;2023-05-10T06:32:01;64.97;;;59.60;;
15929;SDS011;8064;51.142;4.780;2023-05-10T06:34:27;65.67;;;60.17;;
15929;SDS011;8064;51.142;4.780;2023-05-10T06:36:53;66.20;;;60.87;;
15929;SDS011;8064;51.142;4.780;2023-05-10T06:39:18;65.77;;;60.43;;
15929;SDS011;8064;51.142;4.780;2023-05-10T06:41:44;66.47;;;61.03;;
15929;SDS011;8064;51.142;4.780;2023-05-10T06:44:10;67.47;;;62.13;;
15929;SDS011;8064;51.142;4.780;2023-05-10T06:46:36;69.80;;;64.13;;
15929;SDS011;8064;51.142;4.780;2023-05-10T06:49:02;69.17;;;63.17;;
15929;SDS011;8064;51.142;4.780;2023-05-10T06:51:28;70.73;;;64.73;;
15929;SDS011;8064;51.142;4.780;2023-05-10T06:53:54;72.47;;;66.30;;
15929;SDS011;8064;51.142;4.780;2023-05-10T06:56:19;72.10;;;65.87;;
15929;SDS011;8064;51.142;4.780;2023-05-10T06:58:47;71.03;;;65.13;;
15929;SDS011;8064;51.142;4.780;2023-05-10T07:01:14;74.33;;;68.13;;
15929;SDS011;8064;51.142;4.780;2023-05-10T07:03:40;74.27;;;68.00;;
15929;SDS011;8064;51.142;4.780;2023-05-10T07:06:06;71.57;;;65.63;;
15929;SDS011;8064;51.142;4.780;2023-05-10T07:08:33;71.57;;;65.60;;
15929;SDS011;8064;51.142;4.780;2023-05-10T07:11:00;69.83;;;63.97;;
15929;SDS011;8064;51.142;4.780;2023-05-10T07:13:28;69.60;;;63.90;;
15929;SDS011;8064;51.142;4.780;2023-05-10T07:15:55;68.73;;;63.27;;
15929;SDS011;8064;51.142;4.780;2023-05-10T07:18:21;67.67;;;62.40;;
15929;SDS011;8064;51.142;4.780;2023-05-10T07:20:47;69.63;;;64.03;;
15929;SDS011;8064;51.142;4.780;2023-05-10T07:23:13;65.93;;;60.70;;
15929;SDS011;8064;51.142;4.780;2023-05-10T07:25:38;65.10;;;60.20;;
15929;SDS011;8064;51.142;4.780;2023-05-10T07:28:05;66.00;;;61.00;;
15929;SDS011;8064;51.142;4.780;2023-05-10T07:30:31;61.40;;;56.37;;
15929;SDS011;8064;51.142;4.780;2023-05-10T07:32:56;64.70;;;59.70;;
15929;SDS011;8064;51.142;4.780;2023-05-10T07:35:22;64.23;;;59.20;;
15929;SDS011;8064;51.142;4.780;2023-05-10T07:37:48;64.10;;;59.10;;
15929;SDS011;8064;51.142;4.780;2023-05-10T07:40:13;60.47;;;55.80;;
15929;SDS011;8064;51.142;4.780;2023-05-10T07:42:39;62.07;;;57.33;;
15929;SDS011;8064;51.142;4.780;2023-05-10T07:45:05;62.30;;;57.17;;
15929;SDS011;8064;51.142;4.780;2023-05-10T07:47:31;62.87;;;58.23;;
15929;SDS011;8064;51.142;4.780;2023-05-10T07:49:57;59.93;;;55.43;;
15929;SDS011;8064;51.142;4.780;2023-05-10T07:52:23;60.90;;;56.37;;
15929;SDS011;8064;51.142;4.780;2023-05-10T07:54:49;59.77;;;55.30;;
15929;SDS011;8064;51.142;4.780;2023-05-10T07:57:15;56.00;;;51.67;;
15929;SDS011;8064;51.142;4.780;2023-05-10T07:59:42;54.90;;;50.63;;
15929;SDS011;8064;51.142;4.780;2023-05-10T08:02:09;57.20;;;52.97;;
15929;SDS011;8064;51.142;4.780;2023-05-10T08:04:35;59.63;;;55.03;;
15929;SDS011;8064;51.142;4.780;2023-05-10T08:07:01;54.23;;;50.13;;
15929;SDS011;8064;51.142;4.780;2023-05-10T08:09:26;54.13;;;50.00;;
15929;SDS011;8064;51.142;4.780;2023-05-10T08:11:52;54.67;;;50.50;;
15929;SDS011;8064;51.142;4.780;2023-05-10T08:14:18;54.20;;;49.83;;
15929;SDS011;8064;51.142;4.780;2023-05-10T08:16:44;53.33;;;48.93;;
15929;SDS011;8064;51.142;4.780;2023-05-10T08:19:09;51.23;;;47.23;;
15929;SDS011;8064;51.142;4.780;2023-05-10T08:21:35;53.67;;;49.57;;
15929;SDS011;8064;51.142;4.780;2023-05-10T08:24:01;53.27;;;49.13;;
15929;SDS011;8064;51.142;4.780;2023-05-10T08:26:27;52.47;;;48.23;;
15929;SDS011;8064;51.142;4.780;2023-05-10T08:28:53;56.13;;;51.73;;
15929;SDS011;8064;51.142;4.780;2023-05-10T08:31:18;59.30;;;54.60;;
15929;SDS011;8064;51.142;4.780;2023-05-10T08:33:44;56.00;;;51.57;;
15929;SDS011;8064;51.142;4.780;2023-05-10T08:36:10;56.60;;;52.10;;
15929;SDS011;8064;51.142;4.780;2023-05-10T08:38:37;59.20;;;54.23;;
15929;SDS011;8064;51.142;4.780;2023-05-10T08:41:03;57.57;;;53.03;;
15929;SDS011;8064;51.142;4.780;2023-05-10T08:43:30;56.80;;;52.13;;
15929;SDS011;8064;51.142;4.780;2023-05-10T08:45:58;56.93;;;52.33;;
15929;SDS011;8064;51.142;4.780;2023-05-10T08:48:26;55.13;;;50.73;;
15929;SDS011;8064;51.142;4.780;2023-05-10T08:50:54;56.17;;;51.73;;
15929;SDS011;8064;51.142;4.780;2023-05-10T08:53:25;53.97;;;49.73;;
15929;SDS011;8064;51.142;4.780;2023-05-10T08:55:52;55.00;;;50.77;;
15929;SDS011;8064;51.142;4.780;2023-05-10T08:58:19;53.97;;;49.97;;
15929;SDS011;8064;51.142;4.780;2023-05-10T09:00:45;58.17;;;53.80;;
15929;SDS011;8064;51.142;4.780;2023-05-10T09:03:16;53.07;;;49.23;;
15929;SDS011;8064;51.142;4.780;2023-05-10T09:05:42;54.17;;;50.07;;
15929;SDS011;8064;51.142;4.780;2023-05-10T09:08:09;52.27;;;48.40;;
15929;SDS011;8064;51.142;4.780;2023-05-10T09:10:38;47.77;;;44.17;;
15929;SDS011;8064;51.142;4.780;2023-05-10T09:13:05;47.10;;;43.50;;
15929;SDS011;8064;51.142;4.780;2023-05-10T09:15:32;47.17;;;43.87;;
15929;SDS011;8064;51.142;4.780;2023-05-10T09:17:58;47.50;;;44.13;;
15929;SDS011;8064;51.142;4.780;2023-05-10T09:20:27;47.13;;;43.70;;
15929;SDS011;8064;51.142;4.780;2023-05-10T09:22:53;48.17;;;44.57;;
15929;SDS011;8064;51.142;4.780;2023-05-10T09:25:18;48.97;;;45.30;;
15929;SDS011;8064;51.142;4.780;2023-05-10T09:27:45;48.20;;;44.50;;
15929;SDS011;8064;51.142;4.780;2023-05-10T09:30:23;47.80;;;44.30;;
15929;SDS011;8064;51.142;4.780;2023-05-10T09:32:51;51.83;;;48.03;;
15929;SDS011;8064;51.142;4.780;2023-05-10T09:35:18;48.97;;;45.37;;
15929;SDS011;8064;51.142;4.780;2023-05-10T09:37:46;47.17;;;43.67;;
15929;SDS011;8064;51.142;4.780;2023-05-10T09:40:15;47.47;;;43.77;;
15929;SDS011;8064;51.142;4.780;2023-05-10T09:42:50;48.90;;;45.37;;
15929;SDS011;8064;51.142;4.780;2023-05-10T09:45:33;50.43;;;46.63;;
15929;SDS011;8064;51.142;4.780;2023-05-10T09:48:00;48.60;;;45.10;;
15929;SDS011;8064;51.142;4.780;2023-05-10T09:50:28;47.13;;;43.70;;
15929;SDS011;8064;51.142;4.780;2023-05-10T09:52:55;47.83;;;44.13;;
15929;SDS011;8064;51.142;4.780;2023-05-10T09:55:25;48.13;;;44.03;;
15929;SDS011;8064;51.142;4.780;2023-05-10T09:58:03;48.20;;;44.40;;
15929;SDS011;8064;51.142;4.780;2023-05-10T10:00:34;48.73;;;45.07;;
15929;SDS011;8064;51.142;4.780;2023-05-10T10:03:02;47.53;;;44.07;;
15929;SDS011;8064;51.142;4.780;2023-05-10T10:05:29;44.90;;;41.60;;
15929;SDS011;8064;51.142;4.780;2023-05-10T10:07:57;44.60;;;41.07;;
15929;SDS011;8064;51.142;4.780;2023-05-10T10:10:24;45.97;;;42.77;;
15929;SDS011;8064;51.142;4.780;2023-05-10T10:12:50;45.03;;;41.57;;
15929;SDS011;8064;51.142;4.780;2023-05-10T10:15:16;45.23;;;41.53;;
15929;SDS011;8064;51.142;4.780;2023-05-10T10:17:43;44.33;;;40.80;;
15929;SDS011;8064;51.142;4.780;2023-05-10T10:20:09;44.27;;;41.07;;
15929;SDS011;8064;51.142;4.780;2023-05-10T10:22:36;42.70;;;39.87;;
15929;SDS011;8064;51.142;4.780;2023-05-10T10:25:02;42.20;;;39.10;;
15929;SDS011;8064;51.142;4.780;2023-05-10T10:30:37;43.87;;;40.77;;
15929;SDS011;8064;51.142;4.780;2023-05-10T10:36:15;46.80;;;43.50;;
15929;SDS011;8064;51.142;4.780;2023-05-10T10:52:26;42.37;;;39.37;;
15929;SDS011;8064;51.142;4.780;2023-05-10T10:57:44;41.43;;;38.53;;
15929;SDS011;8064;51.142;4.780;2023-05-10T11:00:36;42.30;;;39.00;;
15929;SDS011;8064;51.142;4.780;2023-05-10T11:05:49;42.87;;;39.97;;
15929;SDS011;8064;51.142;4.780;2023-05-10T11:08:19;45.27;;;42.07;;
15929;SDS011;8064;51.142;4.780;2023-05-10T11:11:04;44.00;;;41.10;;
15929;SDS011;8064;51.142;4.780;2023-05-10T11:13:33;41.33;;;38.53;;
15929;SDS011;8064;51.142;4.780;2023-05-10T11:16:18;44.17;;;40.83;;
15929;SDS011;8064;51.142;4.780;2023-05-10T11:21:30;40.77;;;37.50;;
15929;SDS011;8064;51.142;4.780;2023-05-10T11:23:56;44.07;;;40.87;;
15929;SDS011;8064;51.142;4.780;2023-05-10T11:26:24;42.07;;;39.37;;
15929;SDS011;8064;51.142;4.780;2023-05-10T11:28:56;42.07;;;39.27;;
15929;SDS011;8064;51.142;4.780;2023-05-10T11:31:23;39.90;;;37.13;;
15929;SDS011;8064;51.142;4.780;2023-05-10T11:33:53;39.07;;;36.47;;
15929;SDS011;8064;51.142;4.780;2023-05-10T11:36:21;41.53;;;38.83;;
15929;SDS011;8064;51.142;4.780;2023-05-10T11:39:00;42.03;;;39.20;;
15929;SDS011;8064;51.142;4.780;2023-05-10T11:41:28;40.77;;;38.13;;
15929;SDS011;8064;51.142;4.780;2023-05-10T11:43:55;40.20;;;37.50;;
15929;SDS011;8064;51.142;4.780;2023-05-10T11:46:23;41.80;;;39.00;;
15929;SDS011;8064;51.142;4.780;2023-05-10T11:48:50;39.83;;;37.27;;
15929;SDS011;8064;51.142;4.780;2023-05-10T11:51:20;39.47;;;36.97;;
15929;SDS011;8064;51.142;4.780;2023-05-10T11:53:48;38.27;;;35.90;;
15929;SDS011;8064;51.142;4.780;2023-05-10T11:56:15;40.60;;;38.10;;
15929;SDS011;8064;51.142;4.780;2023-05-10T11:58:41;37.57;;;35.37;;
15929;SDS011;8064;51.142;4.780;2023-05-10T12:01:07;41.43;;;38.83;;
15929;SDS011;8064;51.142;4.780;2023-05-10T12:03:34;38.20;;;35.80;;
15929;SDS011;8064;51.142;4.780;2023-05-10T12:06:01;33.83;;;31.83;;
15929;SDS011;8064;51.142;4.780;2023-05-10T12:08:28;35.27;;;33.00;;
15929;SDS011;8064;51.142;4.780;2023-05-10T12:11:06;36.20;;;33.83;;
15929;SDS011;8064;51.142;4.780;2023-05-10T12:13:37;36.03;;;33.73;;
15929;SDS011;8064;51.142;4.780;2023-05-10T12:16:24;35.00;;;32.80;;
15929;SDS011;8064;51.142;4.780;2023-05-10T12:18:51;36.47;;;34.17;;
15929;SDS011;8064;51.142;4.780;2023-05-10T12:21:18;35.17;;;32.97;;
15929;SDS011;8064;51.142;4.780;2023-05-10T12:23:45;32.97;;;31.00;;
15929;SDS011;8064;51.142;4.780;2023-05-10T12:26:12;35.03;;;32.73;;
15929;SDS011;8064;51.142;4.780;2023-05-10T12:28:38;35.07;;;32.87;;
15929;SDS011;8064;51.142;4.780;2023-05-10T12:31:05;34.33;;;32.13;;
15929;SDS011;8064;51.142;4.780;2023-05-10T12:36:16;31.40;;;29.37;;
15929;SDS011;8064;51.142;4.780;2023-05-10T12:38:48;32.73;;;30.73;;
15929;SDS011;8064;51.142;4.780;2023-05-10T12:41:15;35.00;;;32.67;;
15929;SDS011;8064;51.142;4.780;2023-05-10T12:43:42;33.93;;;31.47;;
15929;SDS011;8064;51.142;4.780;2023-05-10T12:46:09;34.60;;;32.40;;
15929;SDS011;8064;51.142;4.780;2023-05-10T12:48:36;32.57;;;30.23;;
15929;SDS011;8064;51.142;4.780;2023-05-10T12:51:03;34.07;;;31.97;;
15929;SDS011;8064;51.142;4.780;2023-05-10T12:53:30;32.53;;;30.40;;
15929;SDS011;8064;51.142;4.780;2023-05-10T12:55:56;34.20;;;32.13;;
15929;SDS011;8064;51.142;4.780;2023-05-10T12:58:22;34.47;;;32.33;;
15929;SDS011;8064;51.142;4.780;2023-05-10T13:00:48;34.30;;;32.00;;
15929;SDS011;8064;51.142;4.780;2023-05-10T13:03:14;33.10;;;30.83;;
15929;SDS011;8064;51.142;4.780;2023-05-10T13:05:40;32.90;;;30.93;;
15929;SDS011;8064;51.142;4.780;2023-05-10T13:08:07;34.77;;;32.63;;
15929;SDS011;8064;51.142;4.780;2023-05-10T13:10:32;33.23;;;31.20;;
15929;SDS011;8064;51.142;4.780;2023-05-10T13:12:58;30.93;;;29.03;;
15929;SDS011;8064;51.142;4.780;2023-05-10T13:15:25;34.53;;;32.43;;
15929;SDS011;8064;51.142;4.780;2023-05-10T13:17:51;33.40;;;31.40;;
15929;SDS011;8064;51.142;4.780;2023-05-10T13:20:18;34.20;;;32.03;;
15929;SDS011;8064;51.142;4.780;2023-05-10T13:22:44;32.90;;;30.90;;
15929;SDS011;8064;51.142;4.780;2023-05-10T13:25:10;33.47;;;31.47;;
15929;SDS011;8064;51.142;4.780;2023-05-10T13:27:37;32.13;;;30.13;;
15929;SDS011;8064;51.142;4.780;2023-05-10T13:30:04;34.90;;;32.63;;
15929;SDS011;8064;51.142;4.780;2023-05-10T13:32:30;32.57;;;30.37;;
15929;SDS011;8064;51.142;4.780;2023-05-10T13:34:56;31.93;;;30.07;;
15929;SDS011;8064;51.142;4.780;2023-05-10T13:37:23;35.17;;;32.90;;
15929;SDS011;8064;51.142;4.780;2023-05-10T13:39:48;34.87;;;32.73;;
15929;SDS011;8064;51.142;4.780;2023-05-10T13:42:14;35.80;;;33.50;;
15929;SDS011;8064;51.142;4.780;2023-05-10T13:44:40;33.30;;;31.20;;
15929;SDS011;8064;51.142;4.780;2023-05-10T13:47:06;31.70;;;29.67;;
15929;SDS011;8064;51.142;4.780;2023-05-10T13:49:32;33.47;;;31.47;;
15929;SDS011;8064;51.142;4.780;2023-05-10T13:51:59;34.50;;;32.30;;
15929;SDS011;8064;51.142;4.780;2023-05-10T13:54:31;33.67;;;31.57;;
15929;SDS011;8064;51.142;4.780;2023-05-10T13:56:59;33.80;;;31.77;;
15929;SDS011;8064;51.142;4.780;2023-05-10T13:59:25;32.53;;;30.63;;
15929;SDS011;8064;51.142;4.780;2023-05-10T14:01:51;33.50;;;31.50;;
15929;SDS011;8064;51.142;4.780;2023-05-10T14:04:17;35.27;;;33.07;;
15929;SDS011;8064;51.142;4.780;2023-05-10T14:06:43;39.13;;;36.63;;
15929;SDS011;8064;51.142;4.780;2023-05-10T14:09:09;36.40;;;33.90;;
15929;SDS011;8064;51.142;4.780;2023-05-10T14:11:35;32.77;;;30.63;;
15929;SDS011;8064;51.142;4.780;2023-05-10T14:14:00;33.40;;;31.33;;
15929;SDS011;8064;51.142;4.780;2023-05-10T14:16:26;33.57;;;31.47;;
15929;SDS011;8064;51.142;4.780;2023-05-10T14:18:52;33.73;;;31.63;;
15929;SDS011;8064;51.142;4.780;2023-05-10T14:21:18;32.03;;;30.03;;
15929;SDS011;8064;51.142;4.780;2023-05-10T14:23:44;31.90;;;29.70;;
15929;SDS011;8064;51.142;4.780;2023-05-10T14:26:09;33.03;;;30.97;;
15929;SDS011;8064;51.142;4.780;2023-05-10T14:28:35;35.13;;;32.90;;
15929;SDS011;8064;51.142;4.780;2023-05-10T14:31:01;34.50;;;32.30;;
15929;SDS011;8064;51.142;4.780;2023-05-10T14:33:27;33.87;;;31.77;;
15929;SDS011;8064;51.142;4.780;2023-05-10T14:35:54;31.70;;;29.70;;
15929;SDS011;8064;51.142;4.780;2023-05-10T14:38:22;32.37;;;30.30;;
15929;SDS011;8064;51.142;4.780;2023-05-10T14:40:48;32.77;;;30.67;;
15929;SDS011;8064;51.142;4.780;2023-05-10T14:43:14;30.60;;;28.37;;
15929;SDS011;8064;51.142;4.780;2023-05-10T14:45:40;33.17;;;31.10;;
15929;SDS011;8064;51.142;4.780;2023-05-10T14:48:06;33.07;;;31.03;;
15929;SDS011;8064;51.142;4.780;2023-05-10T14:50:36;34.47;;;32.27;;
15929;SDS011;8064;51.142;4.780;2023-05-10T14:53:01;31.27;;;29.17;;
15929;SDS011;8064;51.142;4.780;2023-05-10T14:55:27;33.97;;;31.87;;
15929;SDS011;8064;51.142;4.780;2023-05-10T14:57:53;31.80;;;29.70;;
15929;SDS011;8064;51.142;4.780;2023-05-10T15:00:19;32.00;;;30.00;;
15929;SDS011;8064;51.142;4.780;2023-05-10T15:02:45;34.17;;;31.60;;
15929;SDS011;8064;51.142;4.780;2023-05-10T15:05:12;36.80;;;34.40;;
15929;SDS011;8064;51.142;4.780;2023-05-10T15:07:38;35.97;;;33.67;;
15929;SDS011;8064;51.142;4.780;2023-05-10T15:10:05;35.33;;;33.03;;
15929;SDS011;8064;51.142;4.780;2023-05-10T15:12:31;35.70;;;33.50;;
15929;SDS011;8064;51.142;4.780;2023-05-10T15:14:57;34.53;;;32.33;;
15929;SDS011;8064;51.142;4.780;2023-05-10T15:17:23;34.50;;;32.40;;
15929;SDS011;8064;51.142;4.780;2023-05-10T15:19:49;36.70;;;34.57;;
15929;SDS011;8064;51.142;4.780;2023-05-10T15:22:15;35.37;;;33.20;;
15929;SDS011;8064;51.142;4.780;2023-05-10T15:24:41;34.37;;;32.17;;
15929;SDS011;8064;51.142;4.780;2023-05-10T15:27:06;34.93;;;32.63;;
15929;SDS011;8064;51.142;4.780;2023-05-10T15:29:32;35.87;;;33.63;;